sensor_id;sensor_type;location;lat;lon;timestamp;pressure;altitude;pressure_sealevel;temperature;humidity
46768;BME280;69007;48.978;18.066;2023-05-23T00:01:12;97322.88;;;15.18;100.00
46768;BME280;69007;48.978;18.066;2023-05-23T00:03:39;97337.09;;;15.20;100.00
46768;BME280;69007;48.978;18.066;2023-05-23T00:06:05;97321.84;;;15.14;100.00
46768;BME280;69007;48.978;18.066;2023-05-23T00:08:31;97312.50;;;15.01;100.00
46768;BME280;69007;48.978;18.066;2023-05-23T00:10:56;97329.88;;;15.10;100.00
46768;BME280;69007;48.978;18.066;2023-05-23T00:13:21;97311.69;;;15.00;100.00
46768;BME280;69007;48.978;18.066;2023-05-23T00:15:47;97319.63;;;15.02;100.00
46768;BME280;69007;48.978;18.066;2023-05-23T00:18:13;97323.47;;;15.01;100.00
46768;BME280;69007;48.978;18.066;2023-05-23T00:20:40;97317.97;;;15.01;100.00
46768;BME280;69007;48.978;18.066;2023-05-23T00:23:10;97318.56;;;14.84;100.00
46768;BME280;69007;48.978;18.066;2023-05-23T00:25:38;97315.72;;;14.89;100.00
46768;BME280;69007;48.978;18.066;2023-05-23T00:28:05;97322.53;;;14.91;100.00
46768;BME280;69007;48.978;18.066;2023-05-23T00:30:31;97322.97;;;14.99;100.00
46768;BME280;69007;48.978;18.066;2023-05-23T00:32:57;97319.41;;;14.98;100.00
46768;BME280;69007;48.978;18.066;2023-05-23T00:35:23;97321.63;;;14.96;100.00
46768;BME280;69007;48.978;18.066;2023-05-23T00:37:48;97329.13;;;14.90;100.00
46768;BME280;69007;48.978;18.066;2023-05-23T00:40:18;97329.94;;;14.91;100.00
46768;BME280;69007;48.978;18.066;2023-05-23T00:42:44;97327.00;;;14.87;100.00
46768;BME280;69007;48.978;18.066;2023-05-23T00:45:10;97329.94;;;14.91;100.00
46768;BME280;69007;48.978;18.066;2023-05-23T00:47:38;97317.56;;;14.93;100.00
46768;BME280;69007;48.978;18.066;2023-05-23T00:50:06;97317.88;;;14.92;100.00
46768;BME280;69007;48.978;18.066;2023-05-23T00:52:32;97321.22;;;14.89;100.00
46768;BME280;69007;48.978;18.066;2023-05-23T00:54:58;97324.03;;;14.84;100.00
46768;BME280;69007;48.978;18.066;2023-05-23T00:57:23;97302.06;;;14.70;100.00
46768;BME280;69007;48.978;18.066;2023-05-23T00:59:48;97304.31;;;14.68;100.00
46768;BME280;69007;48.978;18.066;2023-05-23T01:02:14;97311.03;;;14.76;100.00
46768;BME280;69007;48.978;18.066;2023-05-23T01:04:39;97314.16;;;14.69;100.00
46768;BME280;69007;48.978;18.066;2023-05-23T01:07:04;97300.03;;;14.62;100.00
46768;BME280;69007;48.978;18.066;2023-05-23T01:09:30;97310.38;;;14.65;100.00
46768;BME280;69007;48.978;18.066;2023-05-23T01:12:32;97314.66;;;14.71;100.00
46768;BME280;69007;48.978;18.066;2023-05-23T01:15:13;97314.56;;;14.76;100.00
46768;BME280;69007;48.978;18.066;2023-05-23T01:20:30;97320.88;;;14.77;100.00
46768;BME280;69007;48.978;18.066;2023-05-23T01:28:36;97306.03;;;14.64;100.00
46768;BME280;69007;48.978;18.066;2023-05-23T01:31:03;97309.41;;;14.74;100.00
46768;BME280;69007;48.978;18.066;2023-05-23T01:33:31;97292.75;;;14.71;100.00
46768;BME280;69007;48.978;18.066;2023-05-23T01:35:57;97286.03;;;14.63;100.00
46768;BME280;69007;48.978;18.066;2023-05-23T01:38:25;97309.13;;;14.57;100.00
46768;BME280;69007;48.978;18.066;2023-05-23T01:40:51;97316.78;;;14.60;100.00
46768;BME280;69007;48.978;18.066;2023-05-23T01:43:16;97308.25;;;14.62;100.00
46768;BME280;69007;48.978;18.066;2023-05-23T01:45:42;97308.00;;;14.58;100.00
46768;BME280;69007;48.978;18.066;2023-05-23T01:48:08;97307.13;;;14.63;100.00
46768;BME280;69007;48.978;18.066;2023-05-23T01:50:36;97296.25;;;14.57;100.00
46768;BME280;69007;48.978;18.066;2023-05-23T01:53:01;97305.75;;;14.65;100.00
46768;BME280;69007;48.978;18.066;2023-05-23T01:55:27;97298.13;;;14.62;100.00
46768;BME280;69007;48.978;18.066;2023-05-23T01:57:56;97297.28;;;14.62;100.00
46768;BME280;69007;48.978;18.066;2023-05-23T02:00:22;97306.53;;;14.66;100.00
46768;BME280;69007;48.978;18.066;2023-05-23T02:02:48;97305.94;;;14.69;100.00
46768;BME280;69007;48.978;18.066;2023-05-23T02:05:14;97308.19;;;14.67;100.00
46768;BME280;69007;48.978;18.066;2023-05-23T02:07:39;97312.53;;;14.68;100.00
46768;BME280;69007;48.978;18.066;2023-05-23T02:10:07;97309.50;;;14.69;100.00
46768;BME280;69007;48.978;18.066;2023-05-23T02:12:32;97299.97;;;14.67;100.00
46768;BME280;69007;48.978;18.066;2023-05-23T02:14:57;97298.97;;;14.57;100.00
46768;BME280;69007;48.978;18.066;2023-05-23T02:17:23;97304.75;;;14.56;100.00
46768;BME280;69007;48.978;18.066;2023-05-23T02:19:48;97313.25;;;14.54;100.00
46768;BME280;69007;48.978;18.066;2023-05-23T02:22:14;97305.06;;;14.54;100.00
46768;BME280;69007;48.978;18.066;2023-05-23T02:24:39;97300.16;;;14.51;100.00
46768;BME280;69007;48.978;18.066;2023-05-23T02:27:05;97310.78;;;14.39;100.00
46768;BME280;69007;48.978;18.066;2023-05-23T02:29:31;97302.78;;;14.24;100.00
46768;BME280;69007;48.978;18.066;2023-05-23T02:31:56;97310.41;;;14.27;100.00
46768;BME280;69007;48.978;18.066;2023-05-23T02:34:21;97295.78;;;14.17;100.00
46768;BME280;69007;48.978;18.066;2023-05-23T02:36:47;97287.13;;;14.10;100.00
46768;BME280;69007;48.978;18.066;2023-05-23T02:39:12;97306.19;;;14.15;100.00
46768;BME280;69007;48.978;18.066;2023-05-23T02:41:37;97286.53;;;14.13;100.00
46768;BME280;69007;48.978;18.066;2023-05-23T02:44:03;97299.47;;;14.27;100.00
46768;BME280;69007;48.978;18.066;2023-05-23T02:46:28;97299.31;;;14.37;100.00
46768;BME280;69007;48.978;18.066;2023-05-23T02:48:54;97292.72;;;14.38;100.00
46768;BME280;69007;48.978;18.066;2023-05-23T02:51:19;97283.50;;;14.34;100.00
46768;BME280;69007;48.978;18.066;2023-05-23T02:53:45;97292.81;;;14.33;100.00
46768;BME280;69007;48.978;18.066;2023-05-23T02:56:10;97284.91;;;14.31;100.00
46768;BME280;69007;48.978;18.066;2023-05-23T02:58:37;97300.25;;;14.46;100.00
46768;BME280;69007;48.978;18.066;2023-05-23T03:01:04;97279.53;;;14.40;100.00
46768;BME280;69007;48.978;18.066;2023-05-23T03:03:29;97285.47;;;14.47;100.00
46768;BME280;69007;48.978;18.066;2023-05-23T03:05:56;97266.09;;;14.44;100.00
46768;BME280;69007;48.978;18.066;2023-05-23T03:08:22;97285.75;;;14.46;100.00
46768;BME280;69007;48.978;18.066;2023-05-23T03:10:47;97283.03;;;14.46;100.00
46768;BME280;69007;48.978;18.066;2023-05-23T03:13:13;97272.38;;;14.44;100.00
46768;BME280;69007;48.978;18.066;2023-05-23T03:15:38;97288.31;;;14.56;100.00
46768;BME280;69007;48.978;18.066;2023-05-23T03:18:03;97265.31;;;14.57;100.00
46768;BME280;69007;48.978;18.066;2023-05-23T03:20:29;97270.75;;;14.76;100.00
46768;BME280;69007;48.978;18.066;2023-05-23T03:22:54;97273.53;;;14.90;100.00
46768;BME280;69007;48.978;18.066;2023-05-23T03:25:19;97274.34;;;15.04;100.00
46768;BME280;69007;48.978;18.066;2023-05-23T03:27:45;97254.66;;;15.16;100.00
46768;BME280;69007;48.978;18.066;2023-05-23T03:30:10;97265.53;;;15.35;100.00
46768;BME280;69007;48.978;18.066;2023-05-23T03:32:36;97252.94;;;15.48;100.00
46768;BME280;69007;48.978;18.066;2023-05-23T03:35:01;97261.84;;;15.68;100.00
46768;BME280;69007;48.978;18.066;2023-05-23T03:37:27;97263.78;;;15.81;100.00
46768;BME280;69007;48.978;18.066;2023-05-23T03:39:52;97260.91;;;15.86;100.00
46768;BME280;69007;48.978;18.066;2023-05-23T03:42:17;97247.56;;;15.93;100.00
46768;BME280;69007;48.978;18.066;2023-05-23T03:44:42;97268.50;;;16.26;100.00
46768;BME280;69007;48.978;18.066;2023-05-23T03:47:08;97265.31;;;16.32;100.00
46768;BME280;69007;48.978;18.066;2023-05-23T03:49:33;97272.88;;;16.49;100.00
46768;BME280;69007;48.978;18.066;2023-05-23T03:51:59;97270.56;;;16.65;100.00
46768;BME280;69007;48.978;18.066;2023-05-23T03:54:24;97273.63;;;16.86;100.00
46768;BME280;69007;48.978;18.066;2023-05-23T03:56:50;97272.88;;;17.03;100.00
46768;BME280;69007;48.978;18.066;2023-05-23T03:59:16;97272.16;;;17.29;100.00
46768;BME280;69007;48.978;18.066;2023-05-23T04:01:41;97252.66;;;17.48;100.00
46768;BME280;69007;48.978;18.066;2023-05-23T04:04:06;97261.78;;;17.83;100.00
46768;BME280;69007;48.978;18.066;2023-05-23T04:06:32;97255.38;;;18.05;100.00
46768;BME280;69007;48.978;18.066;2023-05-23T04:08:57;97267.16;;;18.41;100.00
46768;BME280;69007;48.978;18.066;2023-05-23T04:11:23;97262.78;;;18.57;100.00
46768;BME280;69007;48.978;18.066;2023-05-23T04:13:48;97245.75;;;18.73;100.00
46768;BME280;69007;48.978;18.066;2023-05-23T04:16:13;97259.78;;;19.06;100.00
46768;BME280;69007;48.978;18.066;2023-05-23T04:18:39;97255.38;;;19.14;100.00
46768;BME280;69007;48.978;18.066;2023-05-23T04:21:04;97247.94;;;19.06;100.00
46768;BME280;69007;48.978;18.066;2023-05-23T04:23:30;97257.28;;;19.22;100.00
46768;BME280;69007;48.978;18.066;2023-05-23T04:25:55;97260.69;;;19.19;100.00
46768;BME280;69007;48.978;18.066;2023-05-23T04:28:22;97255.47;;;19.56;100.00
46768;BME280;69007;48.978;18.066;2023-05-23T04:30:47;97240.25;;;19.80;100.00
46768;BME280;69007;48.978;18.066;2023-05-23T04:33:14;97267.28;;;20.16;100.00
46768;BME280;69007;48.978;18.066;2023-05-23T04:35:39;97268.63;;;20.10;100.00
46768;BME280;69007;48.978;18.066;2023-05-23T04:38:05;97254.81;;;20.10;100.00
46768;BME280;69007;48.978;18.066;2023-05-23T04:40:30;97266.56;;;20.61;99.73
46768;BME280;69007;48.978;18.066;2023-05-23T04:42:56;97269.94;;;21.01;97.18
46768;BME280;69007;48.978;18.066;2023-05-23T04:45:21;97258.94;;;21.50;91.38
46768;BME280;69007;48.978;18.066;2023-05-23T04:47:47;97259.19;;;22.10;86.91
46768;BME280;69007;48.978;18.066;2023-05-23T04:50:13;97257.91;;;22.76;82.06
46768;BME280;69007;48.978;18.066;2023-05-23T04:52:41;97260.03;;;23.11;78.48
46768;BME280;69007;48.978;18.066;2023-05-23T04:55:07;97241.47;;;23.79;75.85
46768;BME280;69007;48.978;18.066;2023-05-23T04:57:35;97255.56;;;25.04;70.20
46768;BME280;69007;48.978;18.066;2023-05-23T05:00:01;97248.22;;;26.18;67.21
46768;BME280;69007;48.978;18.066;2023-05-23T05:02:31;97248.88;;;26.69;64.90
46768;BME280;69007;48.978;18.066;2023-05-23T05:04:59;97250.25;;;27.71;61.93
46768;BME280;69007;48.978;18.066;2023-05-23T05:07:24;97255.06;;;28.44;59.32
46768;BME280;69007;48.978;18.066;2023-05-23T05:09:50;97246.53;;;29.25;57.08
46768;BME280;69007;48.978;18.066;2023-05-23T05:12:15;97244.06;;;30.17;54.39
46768;BME280;69007;48.978;18.066;2023-05-23T05:14:40;97238.53;;;31.02;52.20
46768;BME280;69007;48.978;18.066;2023-05-23T05:17:06;97239.41;;;31.93;49.16
46768;BME280;69007;48.978;18.066;2023-05-23T05:19:32;97241.63;;;32.50;46.92
46768;BME280;69007;48.978;18.066;2023-05-23T05:21:57;97232.69;;;32.86;45.40
46768;BME280;69007;48.978;18.066;2023-05-23T05:24:24;97234.66;;;33.20;43.24
46768;BME280;69007;48.978;18.066;2023-05-23T05:26:49;97226.97;;;32.94;43.12
46768;BME280;69007;48.978;18.066;2023-05-23T05:29:15;97228.66;;;33.69;41.92
46768;BME280;69007;48.978;18.066;2023-05-23T05:31:40;97226.56;;;34.17;40.43
46768;BME280;69007;48.978;18.066;2023-05-23T05:34:07;97228.91;;;34.42;39.51
46768;BME280;69007;48.978;18.066;2023-05-23T05:36:32;97233.84;;;34.78;38.53
46768;BME280;69007;48.978;18.066;2023-05-23T05:38:58;97228.72;;;35.42;37.96
46768;BME280;69007;48.978;18.066;2023-05-23T05:41:23;97226.94;;;35.49;37.57
46768;BME280;69007;48.978;18.066;2023-05-23T05:43:48;97230.38;;;35.73;37.73
46768;BME280;69007;48.978;18.066;2023-05-23T05:46:14;97225.63;;;35.70;37.45
46768;BME280;69007;48.978;18.066;2023-05-23T05:48:39;97220.88;;;34.97;38.76
46768;BME280;69007;48.978;18.066;2023-05-23T05:51:05;97221.63;;;35.67;37.37
46768;BME280;69007;48.978;18.066;2023-05-23T05:53:30;97228.44;;;34.84;37.75
46768;BME280;69007;48.978;18.066;2023-05-23T05:55:55;97218.47;;;32.97;40.76
46768;BME280;69007;48.978;18.066;2023-05-23T05:58:21;97216.91;;;30.88;44.64
46768;BME280;69007;48.978;18.066;2023-05-23T06:00:47;97221.47;;;31.80;43.59
46768;BME280;69007;48.978;18.066;2023-05-23T06:03:13;97222.19;;;32.91;42.10
46768;BME280;69007;48.978;18.066;2023-05-23T06:05:39;97227.38;;;34.38;39.39
46768;BME280;69007;48.978;18.066;2023-05-23T06:08:05;97221.72;;;35.80;37.02
46768;BME280;69007;48.978;18.066;2023-05-23T06:10:30;97209.78;;;36.18;35.31
46768;BME280;69007;48.978;18.066;2023-05-23T06:12:57;97213.84;;;36.88;34.16
46768;BME280;69007;48.978;18.066;2023-05-23T06:15:22;97218.44;;;36.57;34.33
46768;BME280;69007;48.978;18.066;2023-05-23T06:17:48;97206.47;;;34.92;36.31
46768;BME280;69007;48.978;18.066;2023-05-23T06:20:13;97206.22;;;33.08;40.54
46768;BME280;69007;48.978;18.066;2023-05-23T06:22:38;97209.16;;;32.04;42.80
46768;BME280;69007;48.978;18.066;2023-05-23T06:25:05;97211.91;;;30.47;44.84
46768;BME280;69007;48.978;18.066;2023-05-23T06:27:31;97207.69;;;29.16;47.39
46768;BME280;69007;48.978;18.066;2023-05-23T06:29:56;97207.78;;;28.14;50.05
46768;BME280;69007;48.978;18.066;2023-05-23T06:32:21;97199.81;;;26.67;53.70
46768;BME280;69007;48.978;18.066;2023-05-23T06:34:47;97215.97;;;25.64;57.21
46768;BME280;69007;48.978;18.066;2023-05-23T06:37:12;97208.59;;;25.25;58.97
46768;BME280;69007;48.978;18.066;2023-05-23T06:39:37;97213.44;;;25.05;59.92
46768;BME280;69007;48.978;18.066;2023-05-23T06:42:03;97210.28;;;24.83;61.28
46768;BME280;69007;48.978;18.066;2023-05-23T06:44:28;97211.34;;;24.56;62.37
46768;BME280;69007;48.978;18.066;2023-05-23T06:46:54;97222.38;;;24.72;61.86
46768;BME280;69007;48.978;18.066;2023-05-23T06:49:22;97205.03;;;24.39;63.42
46768;BME280;69007;48.978;18.066;2023-05-23T06:51:48;97219.25;;;24.34;64.97
46768;BME280;69007;48.978;18.066;2023-05-23T06:54:13;97201.31;;;24.12;65.08
46768;BME280;69007;48.978;18.066;2023-05-23T06:56:39;97200.44;;;24.08;65.06
46768;BME280;69007;48.978;18.066;2023-05-23T06:59:04;97210.38;;;23.89;66.86
46768;BME280;69007;48.978;18.066;2023-05-23T07:01:29;97194.56;;;23.58;68.43
46768;BME280;69007;48.978;18.066;2023-05-23T07:03:55;97189.97;;;23.66;70.68
46768;BME280;69007;48.978;18.066;2023-05-23T07:06:21;97208.31;;;23.70;68.77
46768;BME280;69007;48.978;18.066;2023-05-23T07:08:46;97209.16;;;23.55;70.23
46768;BME280;69007;48.978;18.066;2023-05-23T07:11:12;97199.47;;;23.65;71.95
46768;BME280;69007;48.978;18.066;2023-05-23T07:13:37;97189.59;;;23.83;69.91
46768;BME280;69007;48.978;18.066;2023-05-23T07:16:03;97194.28;;;24.18;69.14
46768;BME280;69007;48.978;18.066;2023-05-23T07:18:28;97185.50;;;24.16;68.60
46768;BME280;69007;48.978;18.066;2023-05-23T07:20:53;97188.88;;;23.86;70.85
46768;BME280;69007;48.978;18.066;2023-05-23T07:23:22;97195.09;;;23.99;73.58
46768;BME280;69007;48.978;18.066;2023-05-23T07:25:48;97180.09;;;24.04;70.82
46768;BME280;69007;48.978;18.066;2023-05-23T07:28:13;97183.16;;;24.18;72.42
46768;BME280;69007;48.978;18.066;2023-05-23T07:30:40;97167.25;;;23.80;72.72
46768;BME280;69007;48.978;18.066;2023-05-23T07:33:05;97193.03;;;23.96;72.42
46768;BME280;69007;48.978;18.066;2023-05-23T07:35:31;97179.66;;;24.02;72.31
46768;BME280;69007;48.978;18.066;2023-05-23T07:37:56;97179.06;;;24.12;72.00
46768;BME280;69007;48.978;18.066;2023-05-23T07:40:21;97152.41;;;24.07;73.45
46768;BME280;69007;48.978;18.066;2023-05-23T07:42:47;97179.88;;;24.13;72.38
46768;BME280;69007;48.978;18.066;2023-05-23T07:45:12;97173.13;;;24.33;73.49
46768;BME280;69007;48.978;18.066;2023-05-23T07:47:38;97182.00;;;24.39;73.53
46768;BME280;69007;48.978;18.066;2023-05-23T07:50:04;97174.47;;;24.20;75.44
46768;BME280;69007;48.978;18.066;2023-05-23T07:52:30;97160.78;;;24.11;74.58
46768;BME280;69007;48.978;18.066;2023-05-23T07:54:57;97181.25;;;24.42;74.76
46768;BME280;69007;48.978;18.066;2023-05-23T07:57:22;97173.84;;;24.69;75.17
46768;BME280;69007;48.978;18.066;2023-05-23T07:59:52;97174.16;;;24.87;73.41
46768;BME280;69007;48.978;18.066;2023-05-23T08:02:18;97173.03;;;24.69;75.18
46768;BME280;69007;48.978;18.066;2023-05-23T08:04:43;97172.41;;;24.56;77.51
46768;BME280;69007;48.978;18.066;2023-05-23T08:07:10;97163.97;;;24.52;77.68
46768;BME280;69007;48.978;18.066;2023-05-23T08:09:36;97165.50;;;24.69;77.71
46768;BME280;69007;48.978;18.066;2023-05-23T08:12:02;97174.72;;;24.73;76.73
46768;BME280;69007;48.978;18.066;2023-05-23T08:14:27;97173.78;;;24.65;77.42
46768;BME280;69007;48.978;18.066;2023-05-23T08:16:53;97182.88;;;24.62;77.27
46768;BME280;69007;48.978;18.066;2023-05-23T08:19:18;97181.72;;;24.87;73.12
46768;BME280;69007;48.978;18.066;2023-05-23T08:21:44;97180.09;;;25.32;73.75
46768;BME280;69007;48.978;18.066;2023-05-23T08:24:10;97181.16;;;25.50;68.59
46768;BME280;69007;48.978;18.066;2023-05-23T08:26:37;97164.06;;;25.52;69.23
46768;BME280;69007;48.978;18.066;2023-05-23T08:29:02;97179.56;;;25.76;68.45
46768;BME280;69007;48.978;18.066;2023-05-23T08:31:28;97166.56;;;26.52;68.32
46768;BME280;69007;48.978;18.066;2023-05-23T08:33:54;97159.16;;;26.66;66.39
46768;BME280;69007;48.978;18.066;2023-05-23T08:36:19;97155.78;;;26.16;64.79
46768;BME280;69007;48.978;18.066;2023-05-23T08:38:44;97173.06;;;26.29;64.57
46768;BME280;69007;48.978;18.066;2023-05-23T08:41:20;97167.59;;;26.40;68.92
46768;BME280;69007;48.978;18.066;2023-05-23T08:43:47;97147.19;;;26.66;64.27
46768;BME280;69007;48.978;18.066;2023-05-23T08:46:13;97167.94;;;27.13;64.36
46768;BME280;69007;48.978;18.066;2023-05-23T08:48:41;97165.50;;;27.56;63.15
46768;BME280;69007;48.978;18.066;2023-05-23T08:51:08;97158.13;;;27.93;61.61
46768;BME280;69007;48.978;18.066;2023-05-23T08:53:37;97162.50;;;27.87;58.75
46768;BME280;69007;48.978;18.066;2023-05-23T08:56:04;97146.28;;;27.48;60.43
46768;BME280;69007;48.978;18.066;2023-05-23T08:58:30;97166.06;;;27.28;63.17
46768;BME280;69007;48.978;18.066;2023-05-23T09:00:56;97149.84;;;26.93;64.26
46768;BME280;69007;48.978;18.066;2023-05-23T09:03:25;97157.03;;;26.97;64.56
46768;BME280;69007;48.978;18.066;2023-05-23T09:05:52;97152.13;;;26.80;61.61
46768;BME280;69007;48.978;18.066;2023-05-23T09:08:18;97161.63;;;26.75;65.28
46768;BME280;69007;48.978;18.066;2023-05-23T09:10:43;97162.72;;;27.05;64.03
46768;BME280;69007;48.978;18.066;2023-05-23T09:13:08;97162.72;;;27.05;63.33
46768;BME280;69007;48.978;18.066;2023-05-23T09:15:34;97157.53;;;27.07;63.82
46768;BME280;69007;48.978;18.066;2023-05-23T09:18:00;97155.88;;;26.98;62.09
46768;BME280;69007;48.978;18.066;2023-05-23T09:20:27;97152.91;;;26.80;62.89
46768;BME280;69007;48.978;18.066;2023-05-23T09:22:53;97143.88;;;26.94;63.45
46768;BME280;69007;48.978;18.066;2023-05-23T09:25:19;97149.81;;;27.37;64.02
46768;BME280;69007;48.978;18.066;2023-05-23T09:27:45;97157.69;;;27.84;63.88
46768;BME280;69007;48.978;18.066;2023-05-23T09:30:12;97136.91;;;27.85;61.20
46768;BME280;69007;48.978;18.066;2023-05-23T09:32:38;97151.22;;;27.69;62.53
46768;BME280;69007;48.978;18.066;2023-05-23T09:35:05;97143.53;;;27.58;62.38
46768;BME280;69007;48.978;18.066;2023-05-23T09:37:44;97157.53;;;27.07;63.83
46768;BME280;69007;48.978;18.066;2023-05-23T09:40:13;97148.75;;;27.05;65.93
46768;BME280;69007;48.978;18.066;2023-05-23T09:42:46;97154.72;;;27.03;65.29
46768;BME280;69007;48.978;18.066;2023-05-23T09:45:13;97157.88;;;26.98;64.09
46768;BME280;69007;48.978;18.066;2023-05-23T09:47:38;97157.56;;;27.10;65.63
46768;BME280;69007;48.978;18.066;2023-05-23T09:50:04;97144.69;;;26.98;67.13
46768;BME280;69007;48.978;18.066;2023-05-23T09:52:36;97153.69;;;26.81;65.43
46768;BME280;69007;48.978;18.066;2023-05-23T09:55:02;97149.38;;;26.87;66.82
46768;BME280;69007;48.978;18.066;2023-05-23T09:57:30;97147.31;;;26.77;68.11
46768;BME280;69007;48.978;18.066;2023-05-23T10:00:00;97141.28;;;26.37;68.24
46768;BME280;69007;48.978;18.066;2023-05-23T10:05:46;97140.75;;;26.62;68.17
46768;BME280;69007;48.978;18.066;2023-05-23T10:08:26;97130.97;;;26.79;68.00
46768;BME280;69007;48.978;18.066;2023-05-23T10:13:21;97123.97;;;26.58;68.71
46768;BME280;69007;48.978;18.066;2023-05-23T10:16:01;97132.91;;;26.34;69.53
46768;BME280;69007;48.978;18.066;2023-05-23T10:18:34;97131.69;;;26.35;70.62
46768;BME280;69007;48.978;18.066;2023-05-23T10:21:07;97119.34;;;25.98;71.14
46768;BME280;69007;48.978;18.066;2023-05-23T10:23:34;97129.84;;;25.82;71.48
46768;BME280;69007;48.978;18.066;2023-05-23T10:26:02;97122.81;;;25.61;71.93
46768;BME280;69007;48.978;18.066;2023-05-23T10:28:29;97117.63;;;25.60;75.36
46768;BME280;69007;48.978;18.066;2023-05-23T10:30:54;97122.47;;;25.36;77.68
46768;BME280;69007;48.978;18.066;2023-05-23T10:33:20;97105.56;;;24.98;79.28
46768;BME280;69007;48.978;18.066;2023-05-23T10:35:57;97119.81;;;24.93;80.06
46768;BME280;69007;48.978;18.066;2023-05-23T10:38:31;97117.75;;;24.90;79.58
46768;BME280;69007;48.978;18.066;2023-05-23T10:43:40;97097.28;;;25.02;79.05
46768;BME280;69007;48.978;18.066;2023-05-23T10:46:07;97103.44;;;25.15;79.47
46768;BME280;69007;48.978;18.066;2023-05-23T10:48:34;97104.09;;;25.31;77.85
46768;BME280;69007;48.978;18.066;2023-05-23T10:51:12;97106.28;;;25.18;76.24
46768;BME280;69007;48.978;18.066;2023-05-23T10:53:43;97099.72;;;25.07;78.25
46768;BME280;69007;48.978;18.066;2023-05-23T10:56:10;97091.81;;;25.09;80.18
46768;BME280;69007;48.978;18.066;2023-05-23T10:58:43;97095.88;;;25.15;77.58
46768;BME280;69007;48.978;18.066;2023-05-23T11:01:12;97092.03;;;25.24;76.76
46768;BME280;69007;48.978;18.066;2023-05-23T11:06:40;97089.69;;;25.52;77.19
46768;BME280;69007;48.978;18.066;2023-05-23T11:09:15;97086.19;;;25.59;78.93
46768;BME280;69007;48.978;18.066;2023-05-23T11:11:53;97090.88;;;25.85;77.59
46768;BME280;69007;48.978;18.066;2023-05-23T11:14:21;97078.97;;;25.88;77.01
46768;BME280;69007;48.978;18.066;2023-05-23T11:16:55;97074.06;;;25.78;76.02
46768;BME280;69007;48.978;18.066;2023-05-23T11:19:26;97070.47;;;25.74;76.84
46768;BME280;69007;48.978;18.066;2023-05-23T11:21:59;97080.88;;;25.81;76.73
46768;BME280;69007;48.978;18.066;2023-05-23T11:24:48;97066.47;;;26.05;77.74
46768;BME280;69007;48.978;18.066;2023-05-23T11:27:27;97075.41;;;26.22;79.08
46768;BME280;69007;48.978;18.066;2023-05-23T11:32:22;97054.47;;;26.42;77.05
46768;BME280;69007;48.978;18.066;2023-05-23T11:34:48;97038.34;;;26.21;78.27
46768;BME280;69007;48.978;18.066;2023-05-23T11:37:14;97039.69;;;25.97;76.56
46768;BME280;69007;48.978;18.066;2023-05-23T11:39:39;97038.75;;;25.86;76.14
46768;BME280;69007;48.978;18.066;2023-05-23T11:42:05;97030.34;;;25.48;76.85
46768;BME280;69007;48.978;18.066;2023-05-23T11:44:30;97012.53;;;25.56;77.81
46768;BME280;69007;48.978;18.066;2023-05-23T11:47:02;97008.38;;;25.77;76.79
46768;BME280;69007;48.978;18.066;2023-05-23T11:49:34;97008.84;;;25.49;79.32
46768;BME280;69007;48.978;18.066;2023-05-23T11:52:01;96995.19;;;25.36;74.74
46768;BME280;69007;48.978;18.066;2023-05-23T11:54:27;96995.09;;;25.02;74.66
46768;BME280;69007;48.978;18.066;2023-05-23T11:56:53;96987.06;;;24.97;79.54
46768;BME280;69007;48.978;18.066;2023-05-23T11:59:23;96989.09;;;25.00;74.01
46768;BME280;69007;48.978;18.066;2023-05-23T12:01:50;96973.09;;;24.94;76.66
46768;BME280;69007;48.978;18.066;2023-05-23T12:04:16;97001.31;;;25.23;73.11
46768;BME280;69007;48.978;18.066;2023-05-23T12:06:41;97006.00;;;25.45;74.71
46768;BME280;69007;48.978;18.066;2023-05-23T12:09:09;96995.97;;;25.71;69.94
46768;BME280;69007;48.978;18.066;2023-05-23T12:11:35;97002.84;;;25.81;70.80
46768;BME280;69007;48.978;18.066;2023-05-23T12:14:01;96982.41;;;25.66;68.20
46768;BME280;69007;48.978;18.066;2023-05-23T12:16:31;96972.59;;;25.45;69.44
46768;BME280;69007;48.978;18.066;2023-05-23T12:18:58;96966.47;;;25.32;67.37
46768;BME280;69007;48.978;18.066;2023-05-23T12:21:25;96964.19;;;25.11;66.03
46768;BME280;69007;48.978;18.066;2023-05-23T12:23:50;96981.44;;;24.94;68.87
46768;BME280;69007;48.978;18.066;2023-05-23T12:26:16;96964.13;;;24.77;69.83
46768;BME280;69007;48.978;18.066;2023-05-23T12:28:43;96979.19;;;24.76;71.01
46768;BME280;69007;48.978;18.066;2023-05-23T12:33:39;96983.00;;;24.64;72.12
46768;BME280;69007;48.978;18.066;2023-05-23T12:36:05;96970.28;;;24.63;71.88
46768;BME280;69007;48.978;18.066;2023-05-23T12:38:35;96973.56;;;24.46;72.18
46768;BME280;69007;48.978;18.066;2023-05-23T12:41:19;96975.19;;;24.47;77.15
46768;BME280;69007;48.978;18.066;2023-05-23T12:43:51;96971.41;;;24.59;77.26
46768;BME280;69007;48.978;18.066;2023-05-23T12:46:19;96967.88;;;24.62;77.68
46768;BME280;69007;48.978;18.066;2023-05-23T12:48:44;96968.47;;;24.52;78.56
46768;BME280;69007;48.978;18.066;2023-05-23T12:51:09;96973.41;;;24.58;82.21
46768;BME280;69007;48.978;18.066;2023-05-23T12:53:35;96978.06;;;24.54;84.76
46768;BME280;69007;48.978;18.066;2023-05-23T12:56:01;96992.28;;;24.49;89.56
46768;BME280;69007;48.978;18.066;2023-05-23T12:58:26;96990.50;;;24.37;89.46
46768;BME280;69007;48.978;18.066;2023-05-23T13:00:52;96999.16;;;24.32;91.67
46768;BME280;69007;48.978;18.066;2023-05-23T13:03:18;96998.97;;;24.21;92.89
46768;BME280;69007;48.978;18.066;2023-05-23T13:05:43;97001.84;;;24.05;96.25
46768;BME280;69007;48.978;18.066;2023-05-23T13:08:09;97013.47;;;23.88;95.30